Time;durP1;ratioP1;P1;durP2;ratioP2;P2;SDS_P1;SDS_P2;PMS_P1;PMS_P2;Temp;Humidity;BMP_temperature;BMP_pressure;BME280_temperature;BME280_humidity;BME280_pressure;Samples;Min_cycle;Max_cycle;Signal;HPM_P1;HPM_P2
2023/04/12 00:01:55;;;;;;;18.00;15.50;;;;;;;8.24;76.28;99820.20;103554;282;39696;-71
2023/04/12 00:04:33;;;;;;;19.10;15.60;;;;;;;8.20;76.42;99818.77;103503;282;38490;-72
2023/04/12 00:07:08;;;;;;;17.20;15.00;;;;;;;8.21;76.45;99814.05;103410;282;175387;-71
2023/04/12 00:09:42;;;;;;;18.00;14.60;;;;;;;8.17;76.28;99811.24;103521;281;39156;-71
2023/04/12 00:12:18;;;;;;;16.50;13.80;;;;;;;8.12;76.30;99816.85;103592;281;39871;-70
2023/04/12 00:14:51;;;;;;;17.40;13.30;;;;;;;8.05;76.30;99816.23;103513;281;38395;-68
2023/04/12 00:17:25;;;;;;;14.20;12.50;;;;;;;8.01;76.38;99806.81;103536;281;38624;-74
2023/04/12 00:19:59;;;;;;;16.70;13.50;;;;;;;7.98;76.54;99804.12;103519;281;39012;-73
2023/04/12 00:22:33;;;;;;;14.60;12.60;;;;;;;7.92;76.60;99807.64;103553;281;38422;-70
2023/04/12 00:25:09;;;;;;;16.50;13.30;;;;;;;7.86;76.79;99812.91;103490;281;39628;-68
2023/04/12 00:27:45;;;;;;;14.60;12.30;;;;;;;7.83;77.10;99818.58;103417;281;38520;-71
2023/04/12 00:30:19;;;;;;;14.00;11.80;;;;;;;7.82;77.33;99820.69;103503;281;38249;-71
2023/04/12 00:32:53;;;;;;;13.10;11.10;;;;;;;7.86;77.30;99821.09;103539;281;38483;-71
2023/04/12 00:35:27;;;;;;;12.50;11.10;;;;;;;7.93;77.43;99820.83;103486;281;172648;-74
2023/04/12 00:38:02;;;;;;;13.60;11.40;;;;;;;7.99;77.56;99824.76;103459;281;175426;-71
2023/04/12 00:40:36;;;;;;;13.70;11.90;;;;;;;8.07;77.57;99829.00;103570;281;38705;-72
2023/04/12 00:43:17;;;;;;;15.40;12.20;;;;;;;8.14;77.46;99822.86;103531;281;39022;-73
2023/04/12 00:45:51;;;;;;;15.50;12.00;;;;;;;8.19;77.42;99818.66;103661;280;38673;-71
2023/04/12 00:48:25;;;;;;;14.60;12.30;;;;;;;8.18;77.17;99811.05;103586;280;38964;-73
2023/04/12 00:50:59;;;;;;;13.30;11.40;;;;;;;8.16;77.12;99807.47;103652;280;38427;-73
2023/04/12 00:53:32;;;;;;;13.90;11.00;;;;;;;8.18;77.31;99796.10;103648;280;40353;-73
2023/04/12 00:56:10;;;;;;;14.50;12.00;;;;;;;8.23;77.28;99789.33;103690;280;38244;-70
2023/04/12 00:58:52;;;;;;;15.30;13.20;;;;;;;8.24;77.35;99784.23;103649;280;39123;-68
2023/04/12 01:01:37;;;;;;;14.50;12.10;;;;;;;8.23;77.36;99780.97;103599;280;39400;-69
2023/04/12 01:04:12;;;;;;;16.30;13.00;;;;;;;8.25;77.30;99777.41;103588;280;38419;-68
2023/04/12 01:06:56;;;;;;;15.60;12.30;;;;;;;8.30;77.40;99777.95;103655;280;38575;-70
2023/04/12 01:09:36;;;;;;;13.90;12.50;;;;;;;8.31;77.28;99776.52;103678;280;39460;-70
2023/04/12 01:12:17;;;;;;;14.80;12.10;;;;;;;8.32;77.25;99779.92;103624;280;38649;-68
2023/04/12 01:14:55;;;;;;;15.70;12.70;;;;;;;8.35;77.15;99780.55;103638;280;39379;-68
2023/04/12 01:17:31;;;;;;;14.80;12.50;;;;;;;8.35;77.13;99782.09;103694;280;38642;-71
2023/04/12 01:20:12;;;;;;;15.70;13.50;;;;;;;8.35;76.96;99788.55;103616;280;38838;-71
2023/04/12 01:23:13;;;;;;;15.70;13.50;;;;;;;8.32;77.01;99797.16;103630;280;38435;-73
2023/04/12 01:26:12;;;;;;;14.80;12.50;;;;;;;8.29;77.34;99800.73;103707;280;39470;-69
2023/04/12 01:28:46;;;;;;;13.80;12.30;;;;;;;8.30;77.42;99804.01;103631;280;38803;-71
2023/04/12 01:31:20;;;;;;;12.60;11.30;;;;;;;8.29;77.48;99799.89;103624;280;38251;-71
2023/04/12 01:33:54;;;;;;;15.30;11.90;;;;;;;8.29;77.66;99799.00;103688;280;38501;-70
2023/04/12 01:36:28;;;;;;;13.70;11.80;;;;;;;8.32;77.78;99802.36;103071;280;661088;-73
2023/04/12 01:39:03;;;;;;;15.10;12.10;;;;;;;8.35;77.79;99806.09;103616;280;39816;-73
2023/04/12 01:41:44;;;;;;;15.40;12.20;;;;;;;8.40;77.76;99810.23;103653;280;39871;-68
2023/04/12 01:44:18;;;;;;;13.40;11.90;;;;;;;8.44;77.68;99813.42;103645;280;38513;-69
2023/04/12 01:46:52;;;;;;;14.20;11.60;;;;;;;8.45;77.76;99814.73;103672;280;38452;-68
2023/04/12 01:49:26;;;;;;;12.70;11.40;;;;;;;8.50;77.63;99808.29;103640;280;40175;-69
2023/04/12 01:52:04;;;;;;;12.20;10.90;;;;;;;8.53;77.53;99806.61;103693;280;39560;-73
2023/04/12 01:54:41;;;;;;;13.40;11.60;;;;;;;8.54;77.49;99811.64;103629;280;38291;-72
2023/04/12 01:57:16;;;;;;;13.60;12.10;;;;;;;8.58;77.46;99806.09;103712;269;38543;-69
2023/04/12 01:59:50;;;;;;;15.50;11.70;;;;;;;8.62;77.34;99799.69;103621;280;38231;-71
2023/04/12 02:02:25;;;;;;;13.30;11.50;;;;;;;8.63;77.20;99799.64;103694;280;39579;-68
2023/04/12 02:04:59;;;;;;;12.70;11.30;;;;;;;8.64;77.25;99795.58;103638;280;38314;-70
2023/04/12 02:07:33;;;;;;;13.10;11.70;;;;;;;8.67;77.17;99795.14;103676;280;38365;-74
2023/04/12 02:10:08;;;;;;;14.30;12.60;;;;;;;8.71;77.26;99793.05;103646;280;38517;-71
2023/04/12 02:12:41;;;;;;;14.00;12.60;;;;;;;8.72;77.06;99791.44;103695;280;38876;-69
2023/04/12 02:15:20;;;;;;;13.90;11.90;;;;;;;8.73;77.01;99790.40;103629;280;38848;-70
2023/04/12 02:17:53;;;;;;;13.30;11.30;;;;;;;8.74;76.99;99791.35;103625;280;38277;-68
2023/04/12 02:20:30;;;;;;;12.60;11.20;;;;;;;8.75;76.86;99790.97;103687;280;38855;-72
2023/04/12 02:23:05;;;;;;;12.40;11.10;;;;;;;8.75;76.85;99784.72;103694;280;38217;-68
2023/04/12 02:25:40;;;;;;;13.60;12.20;;;;;;;8.76;76.79;99782.23;103679;280;38755;-71
2023/04/12 02:28:14;;;;;;;14.50;13.00;;;;;;;8.79;76.93;99780.92;103659;280;38348;-74
2023/04/12 02:30:48;;;;;;;14.10;12.10;;;;;;;8.77;76.85;99778.89;103650;280;38338;-72
2023/04/12 02:33:24;;;;;;;13.60;12.00;;;;;;;8.78;76.82;99778.86;103663;280;39384;-72
2023/04/12 02:35:58;;;;;;;14.10;12.40;;;;;;;8.74;76.76;99775.58;103694;280;38253;-71
2023/04/12 02:38:32;;;;;;;14.60;12.30;;;;;;;8.73;76.96;99774.54;103721;280;38748;-71
2023/04/12 02:41:06;;;;;;;16.10;12.50;;;;;;;8.74;76.88;99775.70;103643;280;38510;-70
2023/04/12 02:43:46;;;;;;;16.50;13.10;;;;;;;8.76;76.90;99780.48;103616;280;40012;-67
2023/04/12 02:46:24;;;;;;;14.60;13.00;;;;;;;8.78;76.96;99787.39;103603;280;38534;-69
2023/04/12 02:49:05;;;;;;;14.50;12.40;;;;;;;8.75;76.86;99794.82;103652;280;38902;-69
2023/04/12 02:51:42;;;;;;;14.40;12.80;;;;;;;8.73;76.93;99798.01;103581;280;38611;-74
2023/04/12 02:54:15;;;;;;;16.70;13.50;;;;;;;8.70;76.98;99800.05;103608;280;40328;-74
2023/04/12 02:56:50;;;;;;;16.60;13.30;;;;;;;8.68;77.08;99799.23;103587;280;40116;-71
2023/04/12 02:59:24;;;;;;;14.90;13.10;;;;;;;8.69;77.08;99799.39;103640;280;39662;-74
2023/04/12 03:01:58;;;;;;;14.60;12.90;;;;;;;8.68;77.02;99799.59;103567;281;39712;-71
2023/04/12 03:04:31;;;;;;;16.90;13.80;;;;;;;8.66;77.18;99804.92;103543;281;38469;-68
2023/04/12 03:07:05;;;;;;;14.90;13.20;;;;;;;8.64;77.35;99803.96;103505;269;175477;-72
2023/04/12 03:09:45;;;;;;;17.50;13.80;;;;;;;8.62;77.28;99798.11;103570;280;38585;-74
2023/04/12 03:12:39;;;;;;;14.70;12.90;;;;;;;8.60;77.46;99800.08;103637;280;38309;-72
2023/04/12 03:15:16;;;;;;;15.90;12.90;;;;;;;8.61;77.66;99796.56;103618;280;39959;-69
2023/04/12 03:17:50;;;;;;;14.50;12.50;;;;;;;8.62;77.66;99800.02;103602;280;39346;-69
2023/04/12 03:20:27;;;;;;;14.70;13.00;;;;;;;8.63;77.68;99799.64;103616;280;38243;-72
2023/04/12 03:23:01;;;;;;;14.20;12.70;;;;;;;8.63;77.81;99803.98;103658;280;38898;-73
2023/04/12 03:25:35;;;;;;;14.00;12.50;;;;;;;8.61;77.68;99804.95;103617;280;39422;-72
2023/04/12 03:28:10;;;;;;;12.70;11.40;;;;;;;8.59;77.80;99807.62;103590;280;38479;-73
2023/04/12 03:30:44;;;;;;;13.40;11.50;;;;;;;8.61;77.79;99813.95;103616;269;39431;-71
2023/04/12 03:33:18;;;;;;;13.20;11.40;;;;;;;8.65;77.90;99812.42;103588;280;38786;-70
2023/04/12 03:35:52;;;;;;;15.60;12.40;;;;;;;8.68;78.01;99810.41;103538;280;172634;-71
2023/04/12 03:38:26;;;;;;;14.60;12.60;;;;;;;8.69;77.92;99809.48;103632;280;38411;-73
2023/04/12 03:41:00;;;;;;;13.40;12.00;;;;;;;8.69;77.85;99808.09;103674;280;39724;-71
2023/04/12 03:43:36;;;;;;;13.40;12.00;;;;;;;8.67;77.81;99805.90;103640;280;38575;-71
2023/04/12 03:46:10;;;;;;;15.60;12.30;;;;;;;8.64;77.92;99804.83;103608;280;38362;-69
2023/04/12 03:48:46;;;;;;;13.80;11.60;;;;;;;8.64;78.07;99807.76;103608;280;39934;-69
2023/04/12 03:51:29;;;;;;;13.70;11.90;;;;;;;8.67;78.13;99808.51;103594;280;38353;-71
2023/04/12 03:54:03;;;;;;;15.00;12.70;;;;;;;8.71;78.10;99809.05;103526;281;39964;-69
2023/04/12 03:56:37;;;;;;;14.30;12.70;;;;;;;8.72;78.05;99808.66;103546;281;38588;-73
2023/04/12 03:59:13;;;;;;;15.00;12.60;;;;;;;8.71;77.96;99807.83;103537;281;38810;-73
2023/04/12 04:01:50;;;;;;;13.80;11.80;;;;;;;8.72;78.07;99813.03;103662;280;39446;-73
2023/04/12 04:04:27;;;;;;;15.00;11.70;;;;;;;8.72;78.04;99808.52;103655;280;38321;-71
2023/04/12 04:07:03;;;;;;;15.10;11.60;;;;;;;8.69;78.13;99813.99;103667;280;38249;-71
2023/04/12 04:09:38;;;;;;;14.50;12.50;;;;;;;8.69;78.06;99813.66;103667;280;40132;-68
2023/04/12 04:12:13;;;;;;;12.60;11.20;;;;;;;8.70;78.19;99811.19;103694;280;39396;-68
2023/04/12 04:14:48;;;;;;;13.10;11.30;;;;;;;8.70;78.15;99812.75;103660;269;38481;-69
2023/04/12 04:17:22;;;;;;;15.20;13.00;;;;;;;8.69;78.27;99806.70;103691;280;38751;-73
2023/04/12 04:19:56;;;;;;;14.70;11.40;;;;;;;8.67;78.29;99808.84;103626;280;40162;-72
2023/04/12 04:22:31;;;;;;;13.70;11.80;;;;;;;8.68;78.36;99810.57;103615;280;39692;-71
2023/04/12 04:25:08;;;;;;;12.70;10.70;;;;;;;8.69;78.28;99809.15;103488;280;175364;-71
2023/04/12 04:27:43;;;;;;;11.50;10.20;;;;;;;8.71;78.30;99813.04;103544;282;38537;-69
2023/04/12 04:30:18;;;;;;;14.40;12.00;;;;;;;8.73;78.33;99813.14;103676;280;38712;-70
2023/04/12 04:32:52;;;;;;;14.30;11.80;;;;;;;8.75;78.34;99819.52;103596;280;38987;-69
2023/04/12 04:35:26;;;;;;;12.90;11.00;;;;;;;8.73;78.31;99818.88;103594;280;38470;-71
2023/04/12 04:38:00;;;;;;;12.60;11.00;;;;;;;8.76;78.34;99823.11;103580;280;38243;-70
2023/04/12 04:40:38;;;;;;;13.30;10.90;;;;;;;8.77;78.39;99825.85;103672;280;39471;-72
2023/04/12 04:43:12;;;;;;;11.70;10.50;;;;;;;8.80;78.29;99823.84;103624;280;38858;-70
2023/04/12 04:45:48;;;;;;;11.60;10.40;;;;;;;8.86;78.44;99830.57;103706;280;39450;-72
2023/04/12 04:48:22;;;;;;;13.20;11.80;;;;;;;8.92;78.30;99831.02;103623;280;38801;-71
2023/04/12 04:50:56;;;;;;;13.70;11.30;;;;;;;8.93;78.14;99832.88;103628;280;39424;-70
2023/04/12 04:53:30;;;;;;;11.60;10.40;;;;;;;8.94;77.96;99837.53;103560;280;175354;-71
2023/04/12 04:56:04;;;;;;;14.00;11.20;;;;;;;8.93;78.02;99841.57;103652;280;39613;-71
2023/04/12 04:58:38;;;;;;;13.80;10.60;;;;;;;8.93;77.93;99845.59;103655;280;39493;-71
2023/04/12 05:01:12;;;;;;;12.80;11.20;;;;;;;8.94;78.03;99844.34;103671;280;38687;-73
2023/04/12 05:03:48;;;;;;;13.30;11.30;;;;;;;8.95;77.99;99845.16;103656;280;38833;-72
2023/04/12 05:06:22;;;;;;;14.60;11.80;;;;;;;8.99;77.97;99843.05;102999;280;906948;-71
2023/04/12 05:08:56;;;;;;;13.90;11.70;;;;;;;9.05;78.04;99844.38;103676;280;38602;-73
2023/04/12 05:11:30;;;;;;;14.40;10.70;;;;;;;9.11;77.87;99843.80;103651;280;39513;-71
2023/04/12 05:14:03;;;;;;;13.40;11.50;;;;;;;9.13;77.59;99844.27;103628;280;39660;-69
2023/04/12 05:16:37;;;;;;;15.70;11.40;;;;;;;9.13;77.62;99850.02;103647;280;39473;-73
2023/04/12 05:19:11;;;;;;;13.60;11.80;;;;;;;9.13;77.60;99850.36;103678;280;38634;-71
2023/04/12 05:21:45;;;;;;;13.60;11.60;;;;;;;9.14;77.58;99854.83;103651;280;38450;-72
2023/04/12 05:24:19;;;;;;;13.20;10.70;;;;;;;9.17;77.57;99851.59;103676;280;38834;-71
2023/04/12 05:26:53;;;;;;;13.50;11.20;;;;;;;9.19;77.51;99854.46;103651;280;40147;-69
2023/04/12 05:29:27;;;;;;;13.10;11.70;;;;;;;9.19;77.38;99854.27;103595;280;38792;-69
2023/04/12 05:32:02;;;;;;;13.30;11.20;;;;;;;9.22;77.52;99855.04;103572;280;38826;-73
2023/04/12 05:34:41;;;;;;;14.60;11.70;;;;;;;9.26;77.44;99852.09;103663;280;38855;-72
2023/04/12 05:37:15;;;;;;;13.70;11.20;;;;;;;9.28;77.43;99854.80;103668;280;38515;-70
2023/04/12 05:39:49;;;;;;;12.90;10.80;;;;;;;9.30;77.43;99849.98;103592;280;38874;-69
2023/04/12 05:42:27;;;;;;;13.50;11.50;;;;;;;9.36;77.57;99847.66;103664;280;39453;-69
2023/04/12 05:45:09;;;;;;;13.80;11.30;;;;;;;9.41;77.41;99848.33;103628;280;39937;-68
2023/04/12 05:47:44;;;;;;;13.00;11.00;;;;;;;9.46;77.38;99846.91;103652;280;38515;-70
2023/04/12 05:50:20;;;;;;;13.60;11.60;;;;;;;9.51;77.33;99850.01;103659;280;39682;-69
2023/04/12 05:52:56;;;;;;;14.00;12.50;;;;;;;9.52;77.07;99850.83;103676;269;38797;-73
2023/04/12 05:55:30;;;;;;;14.40;12.80;;;;;;;9.54;77.18;99850.05;101525;280;3014045;-70
2023/04/12 05:58:05;;;;;;;14.60;11.80;;;;;;;9.60;77.13;99849.48;103648;280;38685;-71
2023/04/12 06:00:40;;;;;;;14.90;12.00;;;;;;;9.65;77.03;99848.52;103664;280;39159;-75
2023/04/12 06:03:16;;;;;;;15.10;12.10;;;;;;;9.71;76.76;99847.07;103769;280;40190;-69
2023/04/12 06:05:51;;;;;;;15.70;13.60;;;;;;;9.76;76.53;99848.61;103682;280;40125;-71
2023/04/12 06:08:28;;;;;;;17.70;14.60;;;;;;;9.81;76.36;99852.56;103683;280;39638;-69
2023/04/12 06:11:02;;;;;;;18.20;14.40;;;;;;;9.86;76.15;99851.48;103671;280;39444;-71
2023/04/12 06:13:36;;;;;;;20.50;15.70;;;;;;;9.87;75.87;99851.46;103660;280;39467;-74
2023/04/12 06:16:11;;;;;;;20.80;17.00;;;;;;;9.87;75.68;99851.79;103648;280;38968;-72
2023/04/12 06:18:45;;;;;;;20.20;16.90;;;;;;;9.90;75.45;99851.13;103654;280;38525;-69
2023/04/12 06:21:19;;;;;;;22.30;17.30;;;;;;;9.91;75.11;99844.45;103656;280;38572;-72
2023/04/12 06:23:53;;;;;;;20.80;17.30;;;;;;;9.94;75.22;99849.54;103662;280;38279;-72
2023/04/12 06:26:27;;;;;;;20.70;16.50;;;;;;;9.98;75.02;99845.71;103430;280;174946;-72
2023/04/12 06:29:01;;;;;;;18.90;16.40;;;;;;;9.97;74.86;99846.64;103658;280;39417;-73
2023/04/12 06:31:35;;;;;;;18.00;15.80;;;;;;;9.97;74.66;99847.33;103652;269;38245;-72
2023/04/12 06:34:09;;;;;;;18.00;15.10;;;;;;;10.00;74.77;99847.89;103678;280;38208;-73
2023/04/12 06:36:46;;;;;;;20.10;16.00;;;;;;;10.04;74.61;99847.17;103721;280;38819;-70
2023/04/12 06:39:20;;;;;;;19.30;15.30;;;;;;;10.09;74.50;99847.16;103565;280;38989;-70
2023/04/12 06:41:56;;;;;;;20.50;16.10;;;;;;;10.16;74.48;99852.43;103653;280;39396;-72
2023/04/12 06:44:32;;;;;;;20.40;16.50;;;;;;;10.18;74.25;99851.97;103657;280;39031;-70
2023/04/12 06:47:06;;;;;;;20.00;16.60;;;;;;;10.17;73.91;99855.69;103639;280;39315;-73
2023/04/12 06:49:40;;;;;;;19.90;16.30;;;;;;;10.14;73.60;99858.81;103613;280;39659;-73
2023/04/12 06:52:13;;;;;;;19.80;16.30;;;;;;;10.11;73.75;99855.42;103682;280;38972;-71
2023/04/12 06:54:51;;;;;;;18.00;15.50;;;;;;;10.18;73.91;99860.84;103622;280;38419;-73
2023/04/12 06:57:25;;;;;;;18.10;14.60;;;;;;;10.25;73.75;99862.66;103658;280;38994;-71
2023/04/12 06:59:59;;;;;;;18.20;14.70;;;;;;;10.27;73.44;99864.30;103607;280;38572;-71
2023/04/12 07:02:32;;;;;;;19.10;15.20;;;;;;;10.25;73.19;99862.52;103498;280;38230;-70
2023/04/12 07:05:10;;;;;;;18.00;14.70;;;;;;;10.20;73.02;99865.83;103511;280;175231;-69
2023/04/12 07:07:46;;;;;;;17.70;15.50;;;;;;;10.18;73.01;99861.89;103606;280;38294;-71
2023/04/12 07:10:23;;;;;;;18.20;14.50;;;;;;;10.14;73.13;99858.26;103591;280;38285;-70
2023/04/12 07:13:01;;;;;;;17.00;14.30;;;;;;;10.14;73.27;99860.89;103655;280;38426;-73
2023/04/12 07:15:36;;;;;;;17.90;14.50;;;;;;;10.17;73.35;99865.09;103661;280;38449;-73
2023/04/12 07:18:10;;;;;;;16.90;14.70;;;;;;;10.24;73.37;99866.20;103604;280;38535;-71
2023/04/12 07:20:45;;;;;;;17.90;15.00;;;;;;;10.29;73.12;99871.38;103638;280;38727;-71
2023/04/12 07:23:19;;;;;;;18.50;15.10;;;;;;;10.30;72.88;99877.07;103607;280;39646;-70
2023/04/12 07:25:53;;;;;;;16.60;14.90;;;;;;;10.35;73.07;99877.95;103602;280;39681;-72
2023/04/12 07:28:27;;;;;;;20.40;15.00;;;;;;;10.36;72.89;99881.35;103613;280;39651;-72
2023/04/12 07:31:01;;;;;;;15.80;14.10;;;;;;;10.35;72.56;99881.06;103487;280;175316;-72
2023/04/12 07:33:36;;;;;;;16.00;13.50;;;;;;;10.34;72.47;99876.92;103634;280;38265;-72
2023/04/12 07:36:11;;;;;;;16.70;13.80;;;;;;;10.37;72.37;99872.77;103655;269;38326;-70
2023/04/12 07:38:45;;;;;;;16.70;14.00;;;;;;;10.40;72.29;99863.40;103558;280;38722;-71
2023/04/12 07:41:19;;;;;;;17.20;15.20;;;;;;;10.42;72.43;99860.17;103631;280;39697;-70
2023/04/12 07:43:53;;;;;;;18.00;14.50;;;;;;;10.49;72.60;99861.79;103591;280;39066;-71
2023/04/12 07:46:27;;;;;;;17.00;14.70;;;;;;;10.60;72.87;99859.86;103613;280;39973;-69
2023/04/12 07:49:01;;;;;;;15.00;13.20;;;;;;;10.73;72.97;99857.33;103582;280;39761;-70
2023/04/12 07:51:35;;;;;;;19.00;14.00;;;;;;;10.84;72.32;99861.36;103618;280;38483;-69
2023/04/12 07:54:09;;;;;;;18.20;14.70;;;;;;;10.81;71.43;99863.93;103636;280;38376;-70
2023/04/12 07:56:42;;;;;;;15.10;13.50;;;;;;;10.78;71.38;99866.54;103562;280;38477;-72
2023/04/12 07:59:17;;;;;;;16.20;13.80;;;;;;;10.76;71.07;99871.85;103553;280;38518;-71
2023/04/12 08:01:51;;;;;;;17.20;14.50;;;;;;;10.71;70.98;99870.17;103631;280;39661;-71
2023/04/12 08:04:27;;;;;;;16.20;14.50;;;;;;;10.69;70.91;99874.98;103467;280;175303;-73
2023/04/12 08:07:01;;;;;;;15.60;14.00;;;;;;;10.65;71.00;99875.18;103610;280;39585;-71
2023/04/12 08:09:35;;;;;;;16.80;14.40;;;;;;;10.68;71.26;99881.47;103590;280;38540;-73
2023/04/12 08:12:10;;;;;;;16.40;13.60;;;;;;;10.72;71.29;99881.09;103604;280;39702;-69
2023/04/12 08:14:44;;;;;;;17.20;13.80;;;;;;;10.74;71.03;99878.39;103637;280;39886;-70
2023/04/12 08:17:18;;;;;;;16.10;14.20;;;;;;;10.72;70.75;99873.95;103627;280;39697;-71
2023/04/12 08:19:52;;;;;;;16.20;14.40;;;;;;;10.73;70.90;99869.54;103605;280;39162;-73
2023/04/12 08:22:27;;;;;;;15.60;13.90;;;;;;;10.76;71.02;99874.64;103615;280;38535;-73
2023/04/12 08:25:01;;;;;;;17.40;14.00;;;;;;;10.80;71.05;99880.39;103577;280;39712;-71
2023/04/12 08:27:35;;;;;;;18.00;14.70;;;;;;;10.79;70.84;99879.71;103647;280;38430;-70
2023/04/12 08:30:12;;;;;;;18.00;15.00;;;;;;;10.77;70.49;99879.81;103595;280;39378;-71
2023/04/12 08:32:51;;;;;;;15.60;13.40;;;;;;;10.71;70.38;99877.30;103614;280;38846;-71
2023/04/12 08:35:25;;;;;;;15.30;13.50;;;;;;;10.68;69.98;99874.69;103625;280;38339;-70
2023/04/12 08:38:05;;;;;;;16.10;13.90;;;;;;;10.65;70.22;99877.96;103564;280;38855;-71
2023/04/12 08:40:39;;;;;;;16.30;14.20;;;;;;;10.67;70.39;99877.87;103615;280;38483;-71
2023/04/12 08:43:15;;;;;;;18.10;13.90;;;;;;;10.70;70.38;99887.51;103641;280;39736;-69
2023/04/12 08:45:50;;;;;;;16.50;13.40;;;;;;;10.71;70.39;99894.92;103640;280;39706;-71
2023/04/12 08:48:25;;;;;;;16.90;13.60;;;;;;;10.68;70.19;99895.09;103648;280;38267;-73
2023/04/12 08:50:59;;;;;;;17.90;14.40;;;;;;;10.63;70.19;99898.11;103684;280;38396;-72
2023/04/12 08:53:33;;;;;;;17.00;13.70;;;;;;;10.57;70.32;99902.02;103614;280;38769;-71
2023/04/12 08:56:08;;;;;;;14.90;12.20;;;;;;;10.54;70.38;99899.70;103658;280;39005;-74
2023/04/12 08:58:45;;;;;;;16.30;13.60;;;;;;;10.57;70.45;99895.95;103651;280;38298;-72
2023/04/12 09:01:20;;;;;;;14.80;13.00;;;;;;;10.60;70.60;99885.51;103697;280;39740;-72
2023/04/12 09:03:54;;;;;;;18.70;14.10;;;;;;;10.64;70.95;99882.34;103671;280;38847;-70
2023/04/12 09:06:28;;;;;;;18.60;14.60;;;;;;;10.77;71.50;99870.90;103658;280;38522;-73
2023/04/12 09:09:05;;;;;;;16.50;14.00;;;;;;;11.01;72.18;99854.77;103647;280;38796;-72
2023/04/12 09:11:39;;;;;;;17.30;14.50;;;;;;;11.37;73.05;99841.70;103628;280;38443;-73
2023/04/12 09:14:25;;;;;;;15.80;14.00;;;;;;;11.83;73.01;99838.32;103629;280;38890;-73
2023/04/12 09:16:59;;;;;;;15.20;13.60;;;;;;;12.22;71.80;99838.41;103661;280;39851;-70
2023/04/12 09:19:36;;;;;;;15.80;14.10;;;;;;;12.43;70.26;99841.63;103660;280;39540;-70
2023/04/12 09:22:10;;;;;;;15.10;13.40;;;;;;;12.51;68.92;99845.21;103725;280;38571;-72
2023/04/12 09:24:52;;;;;;;15.60;13.00;;;;;;;12.57;67.90;99843.47;103644;280;38675;-70
2023/04/12 09:27:27;;;;;;;16.50;12.70;;;;;;;12.66;68.02;99843.17;103675;280;39412;-71
2023/04/12 09:30:15;;;;;;;17.00;14.10;;;;;;;12.79;67.44;99848.23;103673;280;38363;-74
2023/04/12 09:32:49;;;;;;;16.20;13.40;;;;;;;12.83;66.88;99847.98;103530;280;39844;-71
2023/04/12 09:35:34;;;;;;;15.60;13.40;;;;;;;12.84;66.67;99847.60;103123;280;647279;-72
2023/04/12 09:38:11;;;;;;;15.30;12.70;;;;;;;12.96;67.02;99844.98;103598;280;38235;-72
2023/04/12 09:40:45;;;;;;;14.90;13.10;;;;;;;13.16;66.97;99840.52;103670;280;38486;-72
2023/04/12 09:43:19;;;;;;;15.90;11.80;;;;;;;13.36;66.23;99841.72;103535;280;175127;-73
2023/04/12 09:45:53;;;;;;;15.20;12.60;;;;;;;13.45;65.67;99838.20;103618;280;38632;-74
2023/04/12 09:48:27;;;;;;;14.20;12.50;;;;;;;13.62;65.76;99839.30;103649;269;38629;-74
2023/04/12 09:51:03;;;;;;;15.60;12.60;;;;;;;13.82;64.79;99837.77;103679;280;38722;-72
2023/04/12 09:53:37;;;;;;;14.50;12.50;;;;;;;13.97;64.02;99835.85;103629;280;39701;-73
2023/04/12 09:56:13;;;;;;;14.70;12.80;;;;;;;14.06;64.02;99835.27;103658;280;38695;-70
2023/04/12 09:58:48;;;;;;;14.00;12.30;;;;;;;14.07;63.13;99828.38;103674;280;39620;-72
2023/04/12 10:01:23;;;;;;;14.30;11.60;;;;;;;14.01;62.61;99830.31;103672;280;38230;-74
2023/04/12 10:03:58;;;;;;;14.00;11.70;;;;;;;13.97;61.98;99831.80;103648;269;38367;-75
2023/04/12 10:06:32;;;;;;;15.00;12.20;;;;;;;13.86;61.33;99833.29;103683;280;38596;-75
2023/04/12 10:09:08;;;;;;;14.20;12.20;;;;;;;13.73;61.44;99833.36;103644;280;38361;-74
2023/04/12 10:11:43;;;;;;;14.60;12.40;;;;;;;13.71;62.20;99834.38;103667;278;38946;-74
2023/04/12 10:14:18;;;;;;;14.30;12.20;;;;;;;13.73;62.12;99836.55;103600;280;39346;-73
2023/04/12 10:16:54;;;;;;;14.50;12.10;;;;;;;13.77;62.06;99836.82;103667;280;38759;-72
2023/04/12 10:19:30;;;;;;;13.60;11.60;;;;;;;13.81;61.72;99836.92;103663;269;39986;-71
2023/04/12 10:22:04;;;;;;;13.00;11.60;;;;;;;13.81;61.11;99838.33;103557;280;175167;-76
2023/04/12 10:24:38;;;;;;;13.10;11.70;;;;;;;13.79;61.28;99835.49;103609;280;38484;-75
2023/04/12 10:27:12;;;;;;;13.50;11.90;;;;;;;13.84;61.44;99833.41;103607;280;39393;-74
2023/04/12 10:29:46;;;;;;;13.10;11.80;;;;;;;13.94;61.20;99840.01;103616;280;38488;-73
2023/04/12 10:32:25;;;;;;;13.50;11.80;;;;;;;14.02;61.06;99843.41;103625;280;38701;-75
2023/04/12 10:35:01;;;;;;;13.20;11.90;;;;;;;14.10;60.37;99842.20;103585;280;39646;-76
2023/04/12 10:38:02;;;;;;;13.60;11.00;;;;;;;14.15;60.05;99839.95;103625;280;38540;-73
2023/04/12 10:40:37;;;;;;;13.60;10.70;;;;;;;14.20;59.31;99843.69;103652;280;39786;-72
2023/04/12 10:43:28;;;;;;;12.20;10.90;;;;;;;14.23;59.48;99846.88;103628;280;38294;-73
2023/04/12 10:46:05;;;;;;;11.60;10.10;;;;;;;14.33;59.35;99844.11;103621;280;39031;-72
2023/04/12 10:48:40;;;;;;;12.10;10.90;;;;;;;14.37;58.68;99842.68;103606;280;39667;-75
2023/04/12 10:51:22;;;;;;;11.70;10.50;;;;;;;14.35;58.58;99840.98;103646;280;39394;-74
2023/04/12 10:54:16;;;;;;;11.30;9.90;;;;;;;14.38;58.54;99839.78;103646;280;38244;-74
2023/04/12 10:56:51;;;;;;;12.50;10.50;;;;;;;14.52;58.87;99837.52;103641;280;39419;-74
2023/04/12 10:59:25;;;;;;;11.30;10.00;;;;;;;14.73;59.17;99835.85;103595;280;38464;-74
2023/04/12 11:02:13;;;;;;;10.70;9.60;;;;;;;14.87;57.05;99831.94;103599;280;39415;-76
2023/04/12 11:05:08;;;;;;;11.10;10.00;;;;;;;14.90;57.31;99824.73;103632;280;38267;-76
2023/04/12 11:07:46;;;;;;;13.40;10.90;;;;;;;15.10;57.29;99821.71;103677;280;38527;-71
2023/04/12 11:10:24;;;;;;;12.30;11.00;;;;;;;15.34;57.49;99823.80;103571;280;38209;-74
2023/04/12 11:13:00;;;;;;;12.60;11.30;;;;;;;15.55;56.66;99821.32;103616;280;38244;-75
2023/04/12 11:15:35;;;;;;;12.90;11.30;;;;;;;15.63;55.42;99818.55;103611;280;38305;-73
2023/04/12 11:18:09;;;;;;;12.50;11.30;;;;;;;15.54;54.74;99814.90;103569;280;38594;-72
2023/04/12 11:20:44;;;;;;;13.30;11.90;;;;;;;15.52;55.31;99812.22;103638;280;38418;-74
2023/04/12 11:23:18;;;;;;;12.80;10.90;;;;;;;15.65;55.14;99804.52;103582;280;38240;-76
2023/04/12 11:25:56;;;;;;;14.20;10.40;;;;;;;15.72;54.62;99805.79;103642;280;38316;-74
2023/04/12 11:28:30;;;;;;;12.40;10.60;;;;;;;15.86;55.15;99806.45;103595;280;39638;-75
2023/04/12 11:31:05;;;;;;;11.70;10.20;;;;;;;15.95;54.95;99804.17;103649;280;38833;-73
2023/04/12 11:33:40;;;;;;;10.90;9.80;;;;;;;16.03;54.41;99806.86;103463;282;38224;-74
2023/04/12 11:36:15;;;;;;;11.70;10.50;;;;;;;16.04;53.90;99804.82;103493;280;174943;-73
2023/04/12 11:38:50;;;;;;;10.80;9.70;;;;;;;16.03;53.31;99801.67;103609;280;39401;-75
2023/04/12 11:41:24;;;;;;;11.40;10.30;;;;;;;15.90;52.87;99798.05;103460;280;39712;-74
2023/04/12 11:43:58;;;;;;;10.30;9.30;;;;;;;15.81;53.12;99793.61;103609;280;39801;-76
2023/04/12 11:46:36;;;;;;;11.90;10.70;;;;;;;15.80;53.93;99786.96;103554;281;38814;-73
2023/04/12 11:49:11;;;;;;;11.60;10.40;;;;;;;15.85;53.96;99780.06;103556;282;39636;-72
2023/04/12 11:51:46;;;;;;;10.60;8.90;;;;;;;15.85;54.05;99780.95;103566;281;38703;-74
2023/04/12 11:54:20;;;;;;;12.00;10.70;;;;;;;15.93;54.20;99778.67;103494;282;38497;-74
2023/04/12 11:56:56;;;;;;;10.20;9.20;;;;;;;16.08;54.38;99773.57;103531;282;38228;-75
2023/04/12 11:59:36;;;;;;;10.10;9.20;;;;;;;16.17;54.12;99767.51;103538;281;38280;-71
2023/04/12 12:02:11;;;;;;;10.50;9.30;;;;;;;16.18;53.61;99765.63;103643;282;39214;-70